Time;durP1;ratioP1;P1;durP2;ratioP2;P2;SDS_P1;SDS_P2;PMS_P1;PMS_P2;Temp;Humidity;BMP_temperature;BMP_pressure;BME280_temperature;BME280_humidity;BME280_pressure;Samples;Min_cycle;Max_cycle;Signal;HPM_P1;HPM_P2
2023/06/30 00:01:28;;;;;;;0.00;0.00;;;;;;;11.18;82.08;100446.69;4998161;28;20040;-76
2023/06/30 00:03:56;;;;;;;0.00;0.00;;;;;;;11.13;82.53;100443.97;5021796;28;20033;-76
2023/06/30 00:06:22;;;;;;;0.00;0.00;;;;;;;11.06;82.38;100449.66;5012586;28;20056;-76
2023/06/30 00:08:50;;;;;;;0.00;0.00;;;;;;;11.04;82.36;100456.50;5027475;28;20021;-77
2023/06/30 00:11:17;;;;;;;0.00;0.00;;;;;;;11.06;82.93;100457.06;5017761;28;20782;-77
2023/06/30 00:13:45;;;;;;;0.00;0.00;;;;;;;10.90;83.10;100440.56;5048639;28;20029;-76
2023/06/30 00:16:10;;;;;;;0.00;0.00;;;;;;;10.87;83.38;100441.13;5026246;28;20021;-77
2023/06/30 00:18:36;;;;;;;0.00;0.00;;;;;;;10.76;83.51;100433.94;4993053;28;20025;-77
2023/06/30 00:21:06;;;;;;;0.00;0.00;;;;;;;10.73;84.22;100429.03;4992730;28;20512;-77
2023/06/30 00:23:34;;;;;;;0.00;0.00;;;;;;;10.67;83.87;100419.16;4997294;28;20029;-76
2023/06/30 00:26:02;;;;;;;0.00;0.00;;;;;;;10.70;84.42;100430.38;5010244;28;20115;-75
2023/06/30 00:28:30;;;;;;;0.00;0.00;;;;;;;10.61;84.62;100427.31;5016418;28;20049;-76
2023/06/30 00:30:55;;;;;;;0.00;0.00;;;;;;;10.60;84.69;100433.91;5007505;28;20037;-76
2023/06/30 00:33:21;;;;;;;0.00;0.00;;;;;;;10.55;85.51;100428.38;5026023;28;20434;-77
2023/06/30 00:35:46;;;;;;;0.00;0.00;;;;;;;10.51;85.26;100429.19;5021697;28;20479;-76
2023/06/30 00:38:12;;;;;;;0.00;0.00;;;;;;;10.48;85.70;100433.28;4989091;28;20508;-78
2023/06/30 00:40:37;;;;;;;0.00;0.00;;;;;;;10.32;86.17;100407.72;5019673;28;20048;-76
2023/06/30 00:43:03;;;;;;;0.00;0.00;;;;;;;10.50;86.56;100435.75;5022049;28;20033;-76
2023/06/30 00:45:28;;;;;;;0.00;0.00;;;;;;;10.40;86.27;100422.84;4996980;28;20025;-76
2023/06/30 00:47:53;;;;;;;0.00;0.00;;;;;;;10.46;86.51;100419.06;4996849;28;20033;-76
2023/06/30 00:50:19;;;;;;;0.00;0.00;;;;;;;10.53;86.79;100430.59;5011475;28;20737;-78
2023/06/30 00:52:48;;;;;;;0.00;0.00;;;;;;;10.47;87.01;100418.78;5012804;28;20029;-77
2023/06/30 00:55:15;;;;;;;0.00;0.00;;;;;;;10.62;87.17;100437.19;5009631;28;20104;-77
2023/06/30 00:57:41;;;;;;;0.00;0.00;;;;;;;10.56;87.21;100424.56;5012253;28;20029;-75
2023/06/30 01:00:11;;;;;;;0.00;0.00;;;;;;;10.47;87.62;100409.78;5030045;28;20049;-75
2023/06/30 01:02:54;;;;;;;0.00;0.00;;;;;;;10.43;87.47;100386.78;5025093;28;20017;-75
2023/06/30 01:05:27;;;;;;;0.00;0.00;;;;;;;10.44;87.75;100404.81;5007044;28;20029;-78
2023/06/30 01:08:25;;;;;;;0.00;0.00;;;;;;;10.49;87.74;100418.53;5010315;28;20034;-79
2023/06/30 01:10:53;;;;;;;0.00;0.00;;;;;;;10.47;88.18;100416.06;5011704;28;20746;-80
2023/06/30 01:13:19;;;;;;;0.00;0.00;;;;;;;10.48;88.16;100414.13;5012245;28;20025;-81
2023/06/30 01:15:45;;;;;;;0.10;0.10;;;;;;;10.42;88.11;100401.53;4993558;28;20036;-79
2023/06/30 01:18:13;;;;;;;0.00;0.00;;;;;;;10.44;88.02;100405.66;5006989;28;20029;-79
2023/06/30 01:20:40;;;;;;;0.10;0.10;;;;;;;10.47;88.48;100409.78;5031037;28;20463;-79
2023/06/30 01:23:21;;;;;;;0.10;0.10;;;;;;;10.50;88.54;100403.78;5009992;28;20017;-79
2023/06/30 01:25:50;;;;;;;0.00;0.00;;;;;;;10.42;88.40;100390.59;5018154;28;20627;-78
2023/06/30 01:28:16;;;;;;;0.00;0.00;;;;;;;10.47;88.68;100398.84;5010158;28;20050;-79
2023/06/30 01:30:42;;;;;;;0.00;0.00;;;;;;;10.49;88.35;100393.91;5017636;28;20041;-79
2023/06/30 01:33:10;;;;;;;0.00;0.00;;;;;;;10.46;88.77;100386.25;5025383;28;20401;-79
2023/06/30 01:35:38;;;;;;;0.10;0.10;;;;;;;10.44;88.97;100391.16;5007457;28;20050;-80
2023/06/30 01:38:06;;;;;;;0.00;0.00;;;;;;;10.35;88.68;100368.16;5022361;28;20512;-79
2023/06/30 01:40:34;;;;;;;0.00;0.00;;;;;;;10.41;88.46;100378.00;4994682;28;20032;-80
2023/06/30 01:43:00;;;;;;;0.10;0.10;;;;;;;10.25;88.98;100350.59;5022503;28;20056;-79
2023/06/30 01:45:30;;;;;;;0.00;0.00;;;;;;;10.33;88.98;100376.59;5014440;28;20529;-80
2023/06/30 01:47:57;;;;;;;0.00;0.00;;;;;;;10.29;88.98;100370.00;5010800;28;20030;-82
2023/06/30 01:50:29;;;;;;;0.05;0.05;;;;;;;10.18;89.08;100352.72;5008952;28;20117;-80
2023/06/30 01:52:58;;;;;;;0.00;0.00;;;;;;;10.28;89.34;100379.31;5006236;28;20337;-80
2023/06/30 01:55:26;;;;;;;0.00;0.00;;;;;;;10.22;89.29;100386.66;4985898;28;20057;-79
2023/06/30 01:57:52;;;;;;;0.00;0.00;;;;;;;10.18;89.43;100369.13;5011592;28;20389;-80
2023/06/30 02:00:20;;;;;;;0.00;0.00;;;;;;;10.17;89.79;100366.66;5006988;28;20030;-81
2023/06/30 02:02:46;;;;;;;0.00;0.00;;;;;;;10.31;90.36;100374.13;5043754;28;20108;-80
2023/06/30 02:05:12;;;;;;;0.00;0.00;;;;;;;10.36;89.93;100369.81;5003886;28;20035;-79
2023/06/30 02:07:37;;;;;;;0.00;0.00;;;;;;;10.40;90.06;100366.25;4990840;28;20034;-79
2023/06/30 02:10:06;;;;;;;0.00;0.00;;;;;;;10.50;89.90;100381.06;5008439;28;20496;-79
2023/06/30 02:12:31;;;;;;;0.00;0.00;;;;;;;10.42;90.21;100360.53;5019998;28;20072;-79
2023/06/30 02:14:56;;;;;;;0.00;0.00;;;;;;;10.44;89.68;100372.84;4992891;28;20053;-78
2023/06/30 02:17:31;;;;;;;0.00;0.00;;;;;;;10.41;90.49;100367.91;5017026;28;20454;-79
2023/06/30 02:19:57;;;;;;;0.00;0.00;;;;;;;10.34;89.85;100358.28;5008845;28;20136;-79
2023/06/30 02:22:25;;;;;;;0.00;0.00;;;;;;;10.20;90.27;100345.09;5024376;28;20030;-79
2023/06/30 02:24:53;;;;;;;0.05;0.05;;;;;;;10.29;90.55;100359.91;4984900;28;20062;-80
2023/06/30 02:27:19;;;;;;;0.00;0.00;;;;;;;10.29;90.03;100365.38;5001229;28;20022;-79
2023/06/30 02:29:44;;;;;;;0.10;0.10;;;;;;;10.24;90.51;100357.13;5005916;28;20029;-79
2023/06/30 02:32:10;;;;;;;0.00;0.00;;;;;;;10.28;90.60;100361.00;5023989;28;20022;-79
2023/06/30 02:34:35;;;;;;;0.00;0.00;;;;;;;10.27;90.51;100362.06;5018972;28;20033;-79
2023/06/30 02:37:01;;;;;;;0.00;0.00;;;;;;;10.28;90.26;100358.25;4990366;28;20091;-79
2023/06/30 02:39:27;;;;;;;0.00;0.00;;;;;;;10.25;90.89;100347.00;4989208;28;20165;-79
2023/06/30 02:41:52;;;;;;;0.00;0.00;;;;;;;10.27;90.11;100340.19;4972534;28;20198;-79
2023/06/30 02:44:18;;;;;;;0.00;0.00;;;;;;;10.27;90.46;100344.84;5027665;28;20029;-80
2023/06/30 02:46:46;;;;;;;0.00;0.00;;;;;;;10.23;90.82;100332.81;4988115;28;20053;-80
2023/06/30 02:49:11;;;;;;;0.00;0.00;;;;;;;10.24;90.45;100340.75;5010694;28;20103;-80
2023/06/30 02:51:37;;;;;;;0.00;0.00;;;;;;;10.20;90.26;100341.53;5023547;28;20447;-79
2023/06/30 02:54:03;;;;;;;0.00;0.00;;;;;;;10.15;90.00;100331.41;5018006;28;20043;-81
2023/06/30 02:56:28;;;;;;;0.00;0.00;;;;;;;10.00;89.85;100312.19;4991029;28;20036;-80
2023/06/30 02:59:04;;;;;;;0.10;0.10;;;;;;;10.05;89.85;100323.16;5007937;28;20033;-79
2023/06/30 03:01:29;;;;;;;0.00;0.00;;;;;;;10.10;89.64;100329.47;5014710;28;20026;-80
2023/06/30 03:04:11;;;;;;;0.00;0.00;;;;;;;10.21;89.34;100329.53;4974210;28;20103;-80
2023/06/30 03:06:37;;;;;;;0.00;0.00;;;;;;;10.26;89.16;100327.63;5019638;28;20505;-80
2023/06/30 03:09:02;;;;;;;0.00;0.00;;;;;;;10.27;88.50;100329.28;5006385;28;20045;-80
2023/06/30 03:11:30;;;;;;;0.00;0.00;;;;;;;10.33;88.90;100332.84;5000632;28;20099;-80
2023/06/30 03:14:00;;;;;;;0.00;0.00;;;;;;;10.52;88.93;100346.09;5002261;28;20483;-81
2023/06/30 03:16:25;;;;;;;0.00;0.00;;;;;;;10.60;88.09;100346.41;5011226;28;20091;-80
2023/06/30 03:18:51;;;;;;;0.10;0.10;;;;;;;10.57;87.55;100325.06;5032128;28;20467;-80
2023/06/30 03:21:16;;;;;;;0.00;0.00;;;;;;;10.71;87.32;100327.28;5014728;28;20468;-80
2023/06/30 03:23:42;;;;;;;0.00;0.00;;;;;;;10.75;87.07;100329.22;5024612;28;20025;-80
2023/06/30 03:26:08;;;;;;;0.10;0.10;;;;;;;10.82;86.70;100331.69;4991852;28;20048;-79
2023/06/30 03:28:33;;;;;;;0.00;0.00;;;;;;;10.90;86.33;100331.16;5006043;28;20046;-80
2023/06/30 03:30:59;;;;;;;0.00;0.00;;;;;;;10.98;86.20;100333.38;5009142;28;20068;-79
2023/06/30 03:33:24;;;;;;;0.00;0.00;;;;;;;11.10;86.04;100335.03;4990078;28;20068;-81
2023/06/30 03:35:50;;;;;;;0.00;0.00;;;;;;;11.18;85.59;100335.31;5040737;28;20117;-79
2023/06/30 03:38:16;;;;;;;0.00;0.00;;;;;;;11.22;85.22;100327.38;5008232;28;20044;-78
2023/06/30 03:40:41;;;;;;;0.10;0.10;;;;;;;11.17;85.42;100308.22;5010049;28;20057;-80
2023/06/30 03:43:07;;;;;;;0.00;0.00;;;;;;;11.25;85.14;100321.34;4975318;28;20487;-80
2023/06/30 03:45:41;;;;;;;0.00;0.00;;;;;;;11.16;84.81;100306.56;4999785;28;20036;-81
2023/06/30 03:48:07;;;;;;;0.00;0.00;;;;;;;11.28;84.48;100315.31;5029429;28;20031;-80
2023/06/30 03:50:32;;;;;;;0.00;0.00;;;;;;;11.30;84.81;100318.63;5003674;28;20033;-80
2023/06/30 03:52:59;;;;;;;0.00;0.00;;;;;;;11.31;84.57;100322.16;5030512;28;20408;-80
2023/06/30 03:55:26;;;;;;;0.00;0.00;;;;;;;11.29;84.26;100306.03;5013501;28;20037;-80
2023/06/30 03:57:52;;;;;;;0.00;0.00;;;;;;;11.37;84.49;100314.78;5002189;28;20029;-79
2023/06/30 04:00:17;;;;;;;0.00;0.00;;;;;;;11.28;83.81;100298.91;5039981;28;20029;-79
2023/06/30 04:02:43;;;;;;;0.00;0.00;;;;;;;11.31;83.62;100297.53;4996329;28;20030;-80
2023/06/30 04:05:08;;;;;;;0.00;0.00;;;;;;;11.34;83.80;100308.75;5009476;28;20344;-80
2023/06/30 04:07:37;;;;;;;0.00;0.00;;;;;;;11.32;83.53;100293.72;5008832;28;20087;-80
2023/06/30 04:10:03;;;;;;;0.00;0.00;;;;;;;11.38;83.69;100289.06;5004571;28;20152;-79
2023/06/30 04:12:28;;;;;;;0.00;0.00;;;;;;;11.34;83.02;100291.50;5027067;28;20021;-80
2023/06/30 04:14:54;;;;;;;0.00;0.00;;;;;;;11.48;83.12;100310.94;5026220;28;20116;-79
2023/06/30 04:17:21;;;;;;;0.00;0.00;;;;;;;11.34;82.51;100280.56;5015854;28;20108;-79
2023/06/30 04:19:47;;;;;;;0.00;0.00;;;;;;;11.34;82.09;100275.88;5018926;28;20475;-80
2023/06/30 04:22:12;;;;;;;0.00;0.00;;;;;;;11.35;82.18;100291.22;4994479;28;20037;-79
2023/06/30 04:24:37;;;;;;;0.00;0.00;;;;;;;11.17;82.68;100275.38;4982651;28;20120;-80
2023/06/30 04:27:03;;;;;;;0.00;0.00;;;;;;;11.14;82.43;100286.84;5015042;28;20377;-80
2023/06/30 04:29:29;;;;;;;0.10;0.10;;;;;;;11.02;82.28;100273.44;4974418;28;20048;-79
2023/06/30 04:31:55;;;;;;;0.00;0.00;;;;;;;10.99;82.38;100274.81;4991047;28;20045;-79
2023/06/30 04:34:21;;;;;;;0.00;0.00;;;;;;;10.91;82.29;100264.41;5005584;28;21397;-79
2023/06/30 04:36:49;;;;;;;0.00;0.00;;;;;;;10.97;82.72;100277.00;5040796;28;20026;-80
2023/06/30 04:39:15;;;;;;;0.00;0.00;;;;;;;10.92;82.42;100263.31;5002228;28;20030;-80
2023/06/30 04:41:42;;;;;;;0.00;0.00;;;;;;;10.87;82.39;100248.81;4980636;28;20491;-79
2023/06/30 04:44:08;;;;;;;0.00;0.00;;;;;;;11.06;82.56;100284.66;5024257;28;20130;-79
2023/06/30 04:46:35;;;;;;;0.00;0.00;;;;;;;11.06;82.47;100271.00;4997551;28;20125;-81
2023/06/30 04:49:03;;;;;;;0.00;0.00;;;;;;;11.02;81.92;100250.72;5039742;28;20488;-79
2023/06/30 04:51:28;;;;;;;0.00;0.00;;;;;;;11.16;82.27;100252.63;5022043;28;20026;-79
2023/06/30 04:54:11;;;;;;;0.00;0.00;;;;;;;11.39;81.83;100272.34;5008902;28;20084;-82
2023/06/30 04:56:39;;;;;;;0.00;0.00;;;;;;;11.52;81.14;100276.41;4991092;28;20095;-81
2023/06/30 04:59:05;;;;;;;0.00;0.00;;;;;;;11.43;81.09;100242.50;5014394;28;20035;-81
2023/06/30 05:01:32;;;;;;;0.00;0.00;;;;;;;11.67;80.69;100270.94;5002147;28;20169;-80
2023/06/30 05:04:00;;;;;;;0.00;0.00;;;;;;;11.64;80.47;100257.78;4992888;28;20029;-80
2023/06/30 05:06:26;;;;;;;0.00;0.00;;;;;;;11.75;80.48;100255.84;5019123;28;20494;-80
2023/06/30 05:08:57;;;;;;;0.00;0.00;;;;;;;11.83;79.85;100259.94;5036440;28;20026;-80
2023/06/30 05:11:22;;;;;;;0.00;0.00;;;;;;;11.93;79.75;100265.44;4989494;28;20439;-81
2023/06/30 05:13:55;;;;;;;0.00;0.00;;;;;;;11.80;79.78;100233.13;5023402;28;20113;-81
2023/06/30 05:16:28;;;;;;;0.00;0.00;;;;;;;11.89;79.57;100245.13;5041075;28;20041;-80
2023/06/30 05:18:53;;;;;;;0.00;0.00;;;;;;;11.74;79.77;100217.78;5006855;28;20022;-81
2023/06/30 05:21:22;;;;;;;0.00;0.00;;;;;;;12.04;80.08;100258.78;5025869;28;20026;-80
2023/06/30 05:23:58;;;;;;;;;;;;;;;;;;;;;
2023/06/30 05:26:23;;;;;;;0.00;0.00;;;;;;;12.08;79.74;100239.06;5014559;28;20029;-81
2023/06/30 05:28:52;;;;;;;0.00;0.00;;;;;;;12.33;79.60;100260.88;4990172;28;20057;-80
2023/06/30 05:31:17;;;;;;;0.00;0.00;;;;;;;12.43;79.45;100256.44;5006027;28;20037;-81
2023/06/30 05:33:42;;;;;;;0.00;0.00;;;;;;;12.60;79.15;100251.41;5008410;28;20044;-79
2023/06/30 05:36:18;;;;;;;0.00;0.00;;;;;;;12.64;78.63;100241.50;4988050;28;20033;-79
2023/06/30 05:38:45;;;;;;;0.00;0.00;;;;;;;12.89;79.01;100253.41;5002317;28;20029;-78
2023/06/30 05:41:11;;;;;;;0.00;0.00;;;;;;;12.95;78.26;100235.78;5017425;28;20076;-80
2023/06/30 05:43:36;;;;;;;0.00;0.00;;;;;;;13.00;78.20;100227.50;5011154;28;20030;-82
2023/06/30 05:46:02;;;;;;;0.00;0.00;;;;;;;13.19;77.53;100226.81;5006322;28;20045;-82
2023/06/30 05:48:27;;;;;;;0.00;0.00;;;;;;;13.35;77.29;100222.84;5052327;28;20040;-81
2023/06/30 05:50:52;;;;;;;0.00;0.00;;;;;;;13.46;76.83;100222.75;5004282;28;20373;-80
2023/06/30 05:53:21;;;;;;;0.00;0.00;;;;;;;13.74;76.78;100229.28;5004636;28;20053;-79
2023/06/30 05:55:47;;;;;;;0.00;0.00;;;;;;;13.96;75.84;100245.28;5022426;28;20033;-79
2023/06/30 05:58:15;;;;;;;0.00;0.00;;;;;;;14.04;75.64;100236.38;4980728;28;20029;-79
2023/06/30 06:00:41;;;;;;;0.00;0.00;;;;;;;14.23;75.31;100246.59;5017618;28;20029;-79
2023/06/30 06:03:06;;;;;;;0.00;0.00;;;;;;;14.30;75.00;100231.38;5003729;28;20164;-79
2023/06/30 06:05:37;;;;;;;0.00;0.00;;;;;;;14.46;74.83;100237.47;4992758;28;20026;-80
2023/06/30 06:08:03;;;;;;;0.00;0.00;;;;;;;14.53;74.06;100219.78;4991440;28;20053;-78
2023/06/30 06:10:28;;;;;;;0.00;0.00;;;;;;;14.61;74.15;100230.13;4997183;28;20021;-80
2023/06/30 06:13:02;;;;;;;0.00;0.00;;;;;;;14.52;73.51;100205.22;5022988;28;20033;-78
2023/06/30 06:15:29;;;;;;;0.00;0.00;;;;;;;14.77;73.52;100239.81;5002155;28;20029;-78
2023/06/30 06:17:55;;;;;;;0.00;0.00;;;;;;;14.75;73.48;100225.53;5040387;28;20033;-78
2023/06/30 06:20:20;;;;;;;0.00;0.00;;;;;;;14.91;73.13;100234.38;5004869;28;20029;-79
2023/06/30 06:22:45;;;;;;;0.00;0.00;;;;;;;15.03;72.86;100236.66;5001747;28;20030;-80
2023/06/30 06:25:13;;;;;;;0.00;0.00;;;;;;;15.01;72.62;100216.88;5039367;28;20067;-79
2023/06/30 06:27:44;;;;;;;0.00;0.00;;;;;;;15.08;72.34;100214.53;5008758;28;20040;-80
2023/06/30 06:30:12;;;;;;;0.00;0.00;;;;;;;15.15;71.94;100212.19;4991964;28;20392;-80
2023/06/30 06:32:38;;;;;;;0.00;0.00;;;;;;;15.23;72.19;100224.47;5020214;28;20017;-82
2023/06/30 06:35:33;;;;;;;0.00;0.00;;;;;;;15.30;72.09;100241.44;4993298;28;20033;-79
2023/06/30 06:38:00;;;;;;;0.00;0.00;;;;;;;15.29;72.61;100237.03;5025089;28;20033;-80
2023/06/30 06:40:25;;;;;;;0.00;0.00;;;;;;;15.29;72.56;100231.53;5023038;28;20083;-80
2023/06/30 06:42:51;;;;;;;0.00;0.00;;;;;;;15.20;73.01;100214.06;5023316;28;20033;-80
2023/06/30 06:45:17;;;;;;;0.00;0.00;;;;;;;15.23;73.22;100224.47;5003343;28;20025;-79
2023/06/30 06:48:21;;;;;;;0.00;0.00;;;;;;;15.29;73.14;100236.22;4994475;28;20051;-80
2023/06/30 06:50:52;;;;;;;0.00;0.00;;;;;;;15.26;73.67;100228.53;5004229;28;20025;-78
2023/06/30 06:53:20;;;;;;;0.00;0.00;;;;;;;15.37;73.00;100227.25;5041976;28;20120;-80
2023/06/30 06:55:50;;;;;;;0.00;0.00;;;;;;;15.35;73.56;100229.50;5045996;28;20025;-80
2023/06/30 06:58:29;;;;;;;0.00;0.00;;;;;;;15.26;73.41;100203.75;5027458;28;20021;-80
2023/06/30 07:00:55;;;;;;;0.00;0.00;;;;;;;15.45;72.97;100204.53;5024137;28;20037;-80
2023/06/30 07:03:24;;;;;;;0.00;0.00;;;;;;;15.64;72.54;100201.69;5013849;28;20044;-82
2023/06/30 07:05:49;;;;;;;0.00;0.00;;;;;;;15.74;71.94;100199.84;5014917;28;20033;-85
2023/06/30 07:08:35;;;;;;;0.00;0.00;;;;;;;15.74;71.23;100188.81;5027654;28;20024;-88
2023/06/30 07:11:08;;;;;;;0.00;0.00;;;;;;;15.92;70.92;100200.91;5031012;28;20035;-88
2023/06/30 07:13:43;;;;;;;0.00;0.00;;;;;;;16.13;70.20;100202.09;4992636;28;20052;-86
2023/06/30 07:16:29;;;;;;;0.00;0.00;;;;;;;16.20;69.91;100171.34;5030976;28;20083;-84
2023/06/30 07:19:02;;;;;;;0.00;0.00;;;;;;;16.35;68.88;100161.88;5039356;28;20061;-85
2023/06/30 07:21:28;;;;;;;0.00;0.00;;;;;;;16.85;68.46;100167.31;5007848;28;20395;-86
2023/06/30 07:23:54;;;;;;;0.00;0.00;;;;;;;17.35;66.92;100191.19;5019952;28;20053;-84
2023/06/30 07:26:22;;;;;;;0.00;0.00;;;;;;;17.50;65.88;100159.56;5034602;28;20022;-84
2023/06/30 07:28:48;;;;;;;0.00;0.00;;;;;;;17.83;64.46;100184.09;5008326;28;20052;-84
2023/06/30 07:31:43;;;;;;;0.00;0.00;;;;;;;17.89;64.49;100176.47;5034187;28;20029;-85
2023/06/30 07:34:18;;;;;;;0.00;0.00;;;;;;;17.85;64.72;100187.31;5024156;28;20038;-85
2023/06/30 07:36:54;;;;;;;0.00;0.00;;;;;;;17.74;64.51;100164.69;5034821;28;20029;-85
2023/06/30 07:39:19;;;;;;;0.00;0.00;;;;;;;17.83;64.99;100178.56;5003496;28;20076;-85
2023/06/30 07:41:45;;;;;;;0.00;0.00;;;;;;;17.75;65.12;100160.78;5022640;28;20026;-86
2023/06/30 07:44:46;;;;;;;;;;;;;;;;;;;;;
2023/06/30 07:47:21;;;;;;;0.00;0.00;;;;;;;18.11;63.93;100168.06;5024288;28;20036;-82
2023/06/30 07:50:39;;;;;;;0.00;0.00;;;;;;;18.50;63.84;100212.56;4999191;28;20088;-83
2023/06/30 07:53:13;;;;;;;0.00;0.00;;;;;;;18.28;64.35;100180.28;4985634;28;20543;-85
2023/06/30 07:55:49;;;;;;;0.00;0.00;;;;;;;18.54;64.15;100177.53;5011771;28;20431;-80
2023/06/30 07:58:14;;;;;;;0.00;0.00;;;;;;;18.64;63.37;100168.09;5006802;28;20104;-80
2023/06/30 08:00:43;;;;;;;0.00;0.00;;;;;;;18.80;62.75;100171.16;5014602;28;20433;-80
2023/06/30 08:03:11;;;;;;;0.00;0.00;;;;;;;18.52;62.97;100171.50;5012879;28;20029;-84
2023/06/30 08:05:46;;;;;;;;;;;;;;;;;;;;;
2023/06/30 08:08:12;;;;;;;0.00;0.00;;;;;;;17.76;65.86;100161.59;5040274;28;20034;-84
2023/06/30 08:10:40;;;;;;;0.00;0.00;;;;;;;17.81;66.36;100166.97;4980469;28;20120;-81
2023/06/30 08:13:20;;;;;;;0.00;0.00;;;;;;;17.74;66.57;100141.75;5057806;28;20041;-82
2023/06/30 08:15:48;;;;;;;0.00;0.00;;;;;;;18.12;66.21;100179.94;5012115;28;20711;-82
2023/06/30 08:18:13;;;;;;;0.00;0.00;;;;;;;18.13;65.44;100167.72;5005705;28;20444;-78
2023/06/30 08:20:39;;;;;;;0.00;0.00;;;;;;;18.01;65.51;100153.72;5021510;28;20056;-80
2023/06/30 08:23:12;;;;;;;0.00;0.00;;;;;;;18.11;65.87;100161.72;5031447;28;20105;-80
2023/06/30 08:25:37;;;;;;;0.00;0.00;;;;;;;18.13;65.82;100142.81;4988718;28;20071;-78
2023/06/30 08:28:05;;;;;;;0.00;0.00;;;;;;;18.21;66.16;100157.81;4989952;28;20552;-77
2023/06/30 08:30:31;;;;;;;0.00;0.00;;;;;;;18.35;65.85;100152.13;5036561;28;20103;-78
2023/06/30 08:32:57;;;;;;;0.00;0.00;;;;;;;18.62;64.78;100157.34;5006800;28;20020;-78
2023/06/30 08:35:22;;;;;;;0.00;0.00;;;;;;;18.70;64.63;100154.88;4983165;28;20033;-77
2023/06/30 08:37:47;;;;;;;0.00;0.00;;;;;;;18.74;64.74;100150.31;4992793;28;20017;-79
2023/06/30 08:40:13;;;;;;;0.00;0.00;;;;;;;18.78;64.11;100156.84;4989987;28;20064;-79
2023/06/30 08:42:44;;;;;;;0.00;0.00;;;;;;;18.66;64.52;100155.53;4983662;28;20542;-78
2023/06/30 08:45:12;;;;;;;0.00;0.00;;;;;;;18.51;65.21;100150.50;5032572;28;20029;-80
2023/06/30 08:47:38;;;;;;;0.00;0.00;;;;;;;18.51;65.45;100152.47;5036106;28;20034;-78
2023/06/30 08:50:06;;;;;;;0.00;0.00;;;;;;;18.57;65.47;100151.94;5027215;28;20124;-80
2023/06/30 08:52:32;;;;;;;0.00;0.00;;;;;;;18.56;64.84;100147.56;4995422;28;20029;-80
2023/06/30 08:54:59;;;;;;;0.00;0.00;;;;;;;18.31;65.92;100146.41;4974873;28;20059;-79
2023/06/30 08:57:25;;;;;;;0.00;0.00;;;;;;;18.08;66.53;100143.81;4999417;28;20105;-79
2023/06/30 08:59:51;;;;;;;0.00;0.00;;;;;;;17.90;67.50;100134.66;5006762;28;20056;-77
2023/06/30 09:02:17;;;;;;;0.00;0.00;;;;;;;17.78;68.30;100126.13;5040578;28;20030;-76
2023/06/30 09:04:43;;;;;;;0.00;0.00;;;;;;;17.72;68.67;100130.19;5023997;28;20112;-79
2023/06/30 09:07:15;;;;;;;0.00;0.00;;;;;;;17.63;68.94;100130.19;5016216;28;20037;-78
2023/06/30 09:09:45;;;;;;;0.00;0.00;;;;;;;17.52;68.81;100123.31;5017585;28;20026;-80
2023/06/30 09:12:11;;;;;;;0.00;0.00;;;;;;;17.28;67.86;100119.78;5013968;28;20098;-77
2023/06/30 09:14:39;;;;;;;0.00;0.00;;;;;;;17.16;68.90;100130.63;5050857;28;20384;-79
2023/06/30 09:17:06;;;;;;;0.00;0.00;;;;;;;16.71;70.78;100133.44;5008746;28;20566;-77
2023/06/30 09:19:31;;;;;;;0.00;0.00;;;;;;;16.62;72.17;100124.25;5008073;28;20031;-78
2023/06/30 09:21:57;;;;;;;0.00;0.00;;;;;;;16.73;72.76;100125.66;5042364;28;20029;-78
2023/06/30 09:24:23;;;;;;;0.00;0.00;;;;;;;16.97;71.71;100119.81;5039557;28;20383;-80
2023/06/30 09:26:49;;;;;;;0.00;0.00;;;;;;;16.96;72.60;100122.91;5008937;28;20033;-78
2023/06/30 09:29:16;;;;;;;0.00;0.00;;;;;;;16.44;76.12;100115.88;4995163;28;20507;-79
2023/06/30 09:31:42;;;;;;;0.00;0.00;;;;;;;16.06;79.62;100135.50;5010242;28;20025;-78
2023/06/30 09:34:12;;;;;;;0.00;0.00;;;;;;;16.21;78.94;100120.56;5003127;28;20121;-79
2023/06/30 09:36:46;;;;;;;0.00;0.00;;;;;;;16.92;76.18;100101.44;5015497;28;20049;-76
2023/06/30 09:39:12;;;;;;;0.00;0.00;;;;;;;18.00;71.86;100099.53;5013290;28;20496;-79
2023/06/30 09:41:41;;;;;;;0.00;0.00;;;;;;;19.13;67.08;100093.88;5020853;28;20100;-78
2023/06/30 09:44:10;;;;;;;0.00;0.00;;;;;;;20.09;62.53;100097.25;5018253;28;20037;-77
2023/06/30 09:46:36;;;;;;;0.00;0.00;;;;;;;20.18;60.03;100096.06;5026121;28;20025;-79
2023/06/30 09:49:04;;;;;;;0.00;0.00;;;;;;;19.87;59.74;100090.88;5006518;28;20383;-78
2023/06/30 09:51:31;;;;;;;0.00;0.00;;;;;;;19.22;61.47;100093.81;5034907;28;20680;-78
2023/06/30 09:54:00;;;;;;;0.00;0.00;;;;;;;18.96;62.73;100078.09;5040102;28;20033;-76
2023/06/30 09:56:26;;;;;;;0.00;0.00;;;;;;;19.01;62.86;100077.94;5018861;28;20375;-74
2023/06/30 09:58:59;;;;;;;0.00;0.00;;;;;;;18.94;62.69;100104.50;5024938;28;20040;-75
2023/06/30 10:01:25;;;;;;;0.00;0.00;;;;;;;18.98;63.06;100067.53;5023105;28;20087;-75
2023/06/30 10:03:52;;;;;;;0.00;0.00;;;;;;;19.05;62.42;100068.97;5022036;28;20060;-74
2023/06/30 10:06:21;;;;;;;0.00;0.00;;;;;;;19.09;63.09;100073.50;5022826;28;20134;-75
2023/06/30 10:08:50;;;;;;;0.00;0.00;;;;;;;19.46;62.05;100081.31;5029649;28;20046;-75
2023/06/30 10:11:15;;;;;;;0.00;0.00;;;;;;;19.65;61.62;100067.81;5025870;28;20040;-77
2023/06/30 10:13:43;;;;;;;0.00;0.00;;;;;;;20.01;61.17;100069.25;5005858;28;20080;-76
2023/06/30 10:16:09;;;;;;;0.00;0.00;;;;;;;20.19;60.94;100069.09;5028333;28;20071;-77
2023/06/30 10:18:43;;;;;;;0.00;0.00;;;;;;;20.12;60.18;100063.28;5009896;28;20033;-76
2023/06/30 10:21:08;;;;;;;0.00;0.00;;;;;;;19.93;61.57;100061.81;5008428;28;20468;-76
2023/06/30 10:23:35;;;;;;;0.00;0.00;;;;;;;19.90;62.07;100062.47;5006697;28;20045;-76
2023/06/30 10:26:04;;;;;;;0.00;0.00;;;;;;;19.91;61.65;100066.88;5024670;28;20483;-75
2023/06/30 10:28:32;;;;;;;0.00;0.00;;;;;;;19.91;61.99;100053.00;5009219;28;20046;-76
2023/06/30 10:30:58;;;;;;;0.00;0.00;;;;;;;19.71;62.40;100060.13;5007829;28;20037;-76
2023/06/30 10:33:23;;;;;;;0.00;0.00;;;;;;;19.67;62.70;100048.91;5023056;28;20033;-75
2023/06/30 10:35:50;;;;;;;0.00;0.00;;;;;;;20.02;62.34;100040.34;4985845;28;20034;-74
2023/06/30 10:38:15;;;;;;;0.00;0.00;;;;;;;20.12;61.31;100041.06;5006826;28;20026;-75
2023/06/30 10:40:41;;;;;;;0.00;0.00;;;;;;;19.91;62.28;100058.53;5023415;28;20033;-75
2023/06/30 10:43:06;;;;;;;0.00;0.00;;;;;;;19.50;63.50;100040.69;4996871;28;20022;-75
2023/06/30 10:45:55;;;;;;;0.00;0.00;;;;;;;19.40;64.40;100049.41;5013365;28;20041;-75
2023/06/30 10:48:21;;;;;;;0.00;0.00;;;;;;;19.15;64.57;100051.97;5028563;28;20056;-74
2023/06/30 10:50:46;;;;;;;0.00;0.00;;;;;;;18.84;65.72;100039.97;5002085;28;20608;-75
2023/06/30 10:53:18;;;;;;;0.00;0.00;;;;;;;18.59;66.54;100022.31;5030966;28;20033;-75
2023/06/30 10:55:44;;;;;;;0.00;0.00;;;;;;;18.42;66.92;100045.31;5026367;28;20029;-77
2023/06/30 10:58:09;;;;;;;0.00;0.00;;;;;;;18.21;67.02;100028.56;5005805;28;20017;-74
2023/06/30 11:00:35;;;;;;;0.00;0.00;;;;;;;18.12;67.79;100031.34;5008375;28;20112;-75
2023/06/30 11:03:04;;;;;;;0.00;0.00;;;;;;;18.08;67.94;100024.03;5037694;28;20026;-75
2023/06/30 11:05:33;;;;;;;0.00;0.00;;;;;;;17.96;68.69;100022.72;5008776;28;20017;-76
2023/06/30 11:08:02;;;;;;;0.00;0.00;;;;;;;17.88;68.42;100020.72;5007931;28;20133;-76
2023/06/30 11:10:43;;;;;;;0.00;0.00;;;;;;;17.87;68.99;100018.28;5005157;28;20099;-74
2023/06/30 11:13:09;;;;;;;0.00;0.00;;;;;;;17.77;69.25;100024.94;5006781;28;20115;-76
2023/06/30 11:15:36;;;;;;;0.00;0.00;;;;;;;17.70;70.15;100021.88;5019181;28;20021;-75
2023/06/30 11:18:10;;;;;;;0.00;0.00;;;;;;;17.66;71.21;100026.41;5008950;28;20029;-75
2023/06/30 11:20:36;;;;;;;0.00;0.00;;;;;;;17.66;71.43;100024.47;5023464;28;20108;-78
2023/06/30 11:23:03;;;;;;;0.00;0.00;;;;;;;17.61;72.28;100033.72;5033795;28;20025;-76
2023/06/30 11:25:37;;;;;;;0.00;0.00;;;;;;;17.33;74.65;100043.41;5021705;28;20075;-76
2023/06/30 11:28:04;;;;;;;0.00;0.00;;;;;;;17.23;76.26;100034.28;5020097;28;20174;-75
2023/06/30 11:30:38;;;;;;;0.00;0.00;;;;;;;17.50;75.41;100024.09;5036949;28;20037;-76
2023/06/30 11:33:05;;;;;;;0.00;0.00;;;;;;;18.06;73.78;100020.75;5000662;28;20076;-75
2023/06/30 11:35:33;;;;;;;0.00;0.00;;;;;;;18.44;72.33;100011.75;5019803;28;20072;-76